Sardinia, Indiana
Current Conditions -  °F | °C
As of 10:53 AM on Friday 28 Nov 2014 (Local Time) from KGEZ Reporting Station
Overcast Overcast  
Wind Chill: 16°   Ceiling: 7000
Heat Index: 27°   Visibility: 10mi
Dew Point: 18°   Wind: 13mph
Humidity: 69%   Direction: 200°SSW
Pressure: 30.34"   Gusts: NA
Location:  39.1743°N, 85.6083°W
Report Text: KGEZ 281553Z AUTO 20011KT 10SM BKN070 OVC100 M03/M08 A3034 RMK AO2 SLP284 T10281078
Loading
Personal Weather Stations






























Interactive Weather Map New forecast layout! Learn more

10-Day Weather Forecast

Advertisements
Track Severe Weather on mobile